sensor_id;sensor_type;location;lat;lon;timestamp;P1;durP1;ratioP1;P2;durP2;ratioP2
24715;SDS011;12822;50.124;8.678;2022-09-13T00:00:11;13.65;;;8.02;;
24715;SDS011;12822;50.124;8.678;2022-09-13T00:02:37;11.73;;;8.35;;
24715;SDS011;12822;50.124;8.678;2022-09-13T00:05:03;13.15;;;9.02;;
24715;SDS011;12822;50.124;8.678;2022-09-13T00:07:29;12.55;;;8.60;;
24715;SDS011;12822;50.124;8.678;2022-09-13T00:09:55;12.80;;;8.73;;
24715;SDS011;12822;50.124;8.678;2022-09-13T00:12:21;11.32;;;7.78;;
24715;SDS011;12822;50.124;8.678;2022-09-13T00:14:47;11.32;;;8.15;;
24715;SDS011;12822;50.124;8.678;2022-09-13T00:17:13;14.90;;;8.70;;
24715;SDS011;12822;50.124;8.678;2022-09-13T00:19:39;9.88;;;8.35;;
24715;SDS011;12822;50.124;8.678;2022-09-13T00:22:05;13.07;;;8.48;;
24715;SDS011;12822;50.124;8.678;2022-09-13T00:24:31;10.07;;;8.02;;
24715;SDS011;12822;50.124;8.678;2022-09-13T00:26:58;13.23;;;8.63;;
24715;SDS011;12822;50.124;8.678;2022-09-13T00:29:24;13.30;;;8.70;;
24715;SDS011;12822;50.124;8.678;2022-09-13T00:31:50;12.80;;;7.90;;
24715;SDS011;12822;50.124;8.678;2022-09-13T00:34:16;11.45;;;8.77;;
24715;SDS011;12822;50.124;8.678;2022-09-13T00:36:42;10.73;;;8.63;;
24715;SDS011;12822;50.124;8.678;2022-09-13T00:39:08;11.85;;;8.90;;
24715;SDS011;12822;50.124;8.678;2022-09-13T00:41:34;12.02;;;8.70;;
24715;SDS011;12822;50.124;8.678;2022-09-13T00:44:00;14.70;;;8.27;;
24715;SDS011;12822;50.124;8.678;2022-09-13T00:48:54;14.35;;;8.70;;
24715;SDS011;12822;50.124;8.678;2022-09-13T00:51:22;13.63;;;8.88;;
24715;SDS011;12822;50.124;8.678;2022-09-13T00:53:49;8.60;;;7.68;;
24715;SDS011;12822;50.124;8.678;2022-09-13T00:56:23;12.82;;;9.48;;
24715;SDS011;12822;50.124;8.678;2022-09-13T00:58:57;12.80;;;9.48;;
24715;SDS011;12822;50.124;8.678;2022-09-13T01:01:25;16.63;;;9.23;;
24715;SDS011;12822;50.124;8.678;2022-09-13T01:03:53;13.98;;;9.48;;
24715;SDS011;12822;50.124;8.678;2022-09-13T01:06:19;16.92;;;9.35;;
24715;SDS011;12822;50.124;8.678;2022-09-13T01:08:48;14.07;;;10.25;;
24715;SDS011;12822;50.124;8.678;2022-09-13T01:11:24;15.68;;;10.30;;
24715;SDS011;12822;50.124;8.678;2022-09-13T01:13:52;14.80;;;10.63;;
24715;SDS011;12822;50.124;8.678;2022-09-13T01:16:19;16.15;;;10.57;;
24715;SDS011;12822;50.124;8.678;2022-09-13T01:18:45;13.27;;;10.40;;
24715;SDS011;12822;50.124;8.678;2022-09-13T01:34:33;13.20;;;10.15;;
24715;SDS011;12822;50.124;8.678;2022-09-13T01:42:00;16.13;;;9.63;;
24715;SDS011;12822;50.124;8.678;2022-09-13T01:44:33;13.93;;;9.10;;
24715;SDS011;12822;50.124;8.678;2022-09-13T01:47:15;12.77;;;10.02;;
24715;SDS011;12822;50.124;8.678;2022-09-13T01:52:23;11.88;;;9.52;;
24715;SDS011;12822;50.124;8.678;2022-09-13T01:55:01;12.25;;;10.13;;
24715;SDS011;12822;50.124;8.678;2022-09-13T01:57:31;12.27;;;9.88;;
24715;SDS011;12822;50.124;8.678;2022-09-13T02:00:03;14.75;;;10.20;;
24715;SDS011;12822;50.124;8.678;2022-09-13T02:02:33;14.60;;;10.18;;
24715;SDS011;12822;50.124;8.678;2022-09-13T02:05:17;16.23;;;10.57;;
24715;SDS011;12822;50.124;8.678;2022-09-13T02:07:46;14.98;;;10.35;;
24715;SDS011;12822;50.124;8.678;2022-09-13T02:10:21;12.40;;;9.65;;
24715;SDS011;12822;50.124;8.678;2022-09-13T02:12:48;13.60;;;10.55;;
24715;SDS011;12822;50.124;8.678;2022-09-13T02:15:16;12.27;;;9.45;;
24715;SDS011;12822;50.124;8.678;2022-09-13T02:17:49;14.43;;;9.45;;
24715;SDS011;12822;50.124;8.678;2022-09-13T02:20:21;12.55;;;10.18;;
24715;SDS011;12822;50.124;8.678;2022-09-13T02:22:50;15.65;;;10.30;;
24715;SDS011;12822;50.124;8.678;2022-09-13T02:25:18;14.00;;;10.27;;
24715;SDS011;12822;50.124;8.678;2022-09-13T02:27:46;15.55;;;10.52;;
24715;SDS011;12822;50.124;8.678;2022-09-13T02:30:14;12.93;;;9.77;;
24715;SDS011;12822;50.124;8.678;2022-09-13T02:35:20;15.77;;;10.40;;
24715;SDS011;12822;50.124;8.678;2022-09-13T02:37:56;12.70;;;9.07;;
24715;SDS011;12822;50.124;8.678;2022-09-13T02:40:24;11.50;;;9.68;;
24715;SDS011;12822;50.124;8.678;2022-09-13T02:43:04;15.10;;;10.32;;
24715;SDS011;12822;50.124;8.678;2022-09-13T02:45:32;13.35;;;9.88;;
24715;SDS011;12822;50.124;8.678;2022-09-13T02:48:06;15.77;;;9.60;;
24715;SDS011;12822;50.124;8.678;2022-09-13T02:53:24;15.18;;;10.38;;
24715;SDS011;12822;50.124;8.678;2022-09-13T02:55:56;11.40;;;9.45;;
24715;SDS011;12822;50.124;8.678;2022-09-13T02:58:31;14.40;;;10.63;;
24715;SDS011;12822;50.124;8.678;2022-09-13T03:00:59;12.35;;;9.82;;
24715;SDS011;12822;50.124;8.678;2022-09-13T03:03:25;14.70;;;9.75;;
24715;SDS011;12822;50.124;8.678;2022-09-13T03:05:52;12.45;;;9.63;;
24715;SDS011;12822;50.124;8.678;2022-09-13T03:08:18;12.52;;;10.10;;
24715;SDS011;12822;50.124;8.678;2022-09-13T03:16:18;11.98;;;9.93;;
24715;SDS011;12822;50.124;8.678;2022-09-13T03:18:50;15.93;;;10.38;;
24715;SDS011;12822;50.124;8.678;2022-09-13T03:32:13;13.00;;;10.18;;
24715;SDS011;12822;50.124;8.678;2022-09-13T03:34:58;11.82;;;9.50;;
24715;SDS011;12822;50.124;8.678;2022-09-13T03:37:36;15.43;;;10.70;;
24715;SDS011;12822;50.124;8.678;2022-09-13T03:40:06;13.88;;;10.90;;
24715;SDS011;12822;50.124;8.678;2022-09-13T03:45:03;20.70;;;12.15;;
24715;SDS011;12822;50.124;8.678;2022-09-13T03:47:31;17.35;;;11.93;;
24715;SDS011;12822;50.124;8.678;2022-09-13T03:49:58;17.35;;;10.70;;
24715;SDS011;12822;50.124;8.678;2022-09-13T03:52:25;17.63;;;11.45;;
24715;SDS011;12822;50.124;8.678;2022-09-13T03:54:51;20.80;;;10.52;;
24715;SDS011;12822;50.124;8.678;2022-09-13T03:57:19;17.70;;;11.77;;
24715;SDS011;12822;50.124;8.678;2022-09-13T04:02:11;15.80;;;11.18;;
24715;SDS011;12822;50.124;8.678;2022-09-13T04:04:38;17.95;;;11.73;;
24715;SDS011;12822;50.124;8.678;2022-09-13T04:07:05;15.77;;;11.75;;
24715;SDS011;12822;50.124;8.678;2022-09-13T04:09:31;16.13;;;11.57;;
24715;SDS011;12822;50.124;8.678;2022-09-13T04:11:57;17.17;;;12.02;;
24715;SDS011;12822;50.124;8.678;2022-09-13T04:14:23;18.65;;;11.65;;
24715;SDS011;12822;50.124;8.678;2022-09-13T04:16:54;13.40;;;10.95;;
24715;SDS011;12822;50.124;8.678;2022-09-13T04:19:21;17.02;;;11.40;;
24715;SDS011;12822;50.124;8.678;2022-09-13T04:21:48;17.70;;;11.35;;
24715;SDS011;12822;50.124;8.678;2022-09-13T04:24:14;17.70;;;11.15;;
24715;SDS011;12822;50.124;8.678;2022-09-13T04:26:40;22.80;;;11.15;;
24715;SDS011;12822;50.124;8.678;2022-09-13T04:29:06;23.13;;;11.27;;
24715;SDS011;12822;50.124;8.678;2022-09-13T04:31:32;17.48;;;11.38;;
24715;SDS011;12822;50.124;8.678;2022-09-13T04:33:58;16.95;;;11.05;;
24715;SDS011;12822;50.124;8.678;2022-09-13T04:36:24;19.05;;;11.02;;
24715;SDS011;12822;50.124;8.678;2022-09-13T04:38:50;16.88;;;11.88;;
24715;SDS011;12822;50.124;8.678;2022-09-13T04:41:16;20.35;;;10.93;;
24715;SDS011;12822;50.124;8.678;2022-09-13T04:43:42;19.73;;;11.30;;
24715;SDS011;12822;50.124;8.678;2022-09-13T04:46:08;15.73;;;10.98;;
24715;SDS011;12822;50.124;8.678;2022-09-13T04:48:34;18.00;;;11.65;;
24715;SDS011;12822;50.124;8.678;2022-09-13T04:51:01;21.08;;;11.18;;
24715;SDS011;12822;50.124;8.678;2022-09-13T04:53:28;17.45;;;11.48;;
24715;SDS011;12822;50.124;8.678;2022-09-13T04:55:59;16.27;;;10.60;;
24715;SDS011;12822;50.124;8.678;2022-09-13T04:58:25;19.33;;;10.85;;
24715;SDS011;12822;50.124;8.678;2022-09-13T05:00:51;18.63;;;11.45;;
24715;SDS011;12822;50.124;8.678;2022-09-13T05:03:21;20.73;;;10.95;;
24715;SDS011;12822;50.124;8.678;2022-09-13T05:05:47;15.27;;;10.88;;
24715;SDS011;12822;50.124;8.678;2022-09-13T05:08:13;17.70;;;10.85;;
24715;SDS011;12822;50.124;8.678;2022-09-13T05:10:39;18.98;;;12.10;;
24715;SDS011;12822;50.124;8.678;2022-09-13T05:13:08;20.80;;;11.50;;
24715;SDS011;12822;50.124;8.678;2022-09-13T05:15:34;17.90;;;10.65;;
24715;SDS011;12822;50.124;8.678;2022-09-13T05:18:00;20.85;;;11.05;;
24715;SDS011;12822;50.124;8.678;2022-09-13T05:20:26;15.73;;;10.45;;
24715;SDS011;12822;50.124;8.678;2022-09-13T05:22:54;19.73;;;10.65;;
24715;SDS011;12822;50.124;8.678;2022-09-13T05:25:20;18.52;;;10.68;;
24715;SDS011;12822;50.124;8.678;2022-09-13T05:27:46;15.43;;;11.00;;
24715;SDS011;12822;50.124;8.678;2022-09-13T05:30:12;23.05;;;10.18;;
24715;SDS011;12822;50.124;8.678;2022-09-13T05:32:38;16.27;;;10.68;;
24715;SDS011;12822;50.124;8.678;2022-09-13T05:35:06;15.95;;;10.52;;
24715;SDS011;12822;50.124;8.678;2022-09-13T05:37:34;20.67;;;10.70;;
24715;SDS011;12822;50.124;8.678;2022-09-13T05:40:01;16.52;;;10.50;;
24715;SDS011;12822;50.124;8.678;2022-09-13T05:42:27;19.27;;;11.40;;
24715;SDS011;12822;50.124;8.678;2022-09-13T05:44:53;18.35;;;10.35;;
24715;SDS011;12822;50.124;8.678;2022-09-13T05:47:19;16.45;;;10.05;;
24715;SDS011;12822;50.124;8.678;2022-09-13T05:49:45;17.30;;;10.48;;
24715;SDS011;12822;50.124;8.678;2022-09-13T05:52:11;16.25;;;9.85;;
24715;SDS011;12822;50.124;8.678;2022-09-13T05:54:37;17.60;;;10.02;;
24715;SDS011;12822;50.124;8.678;2022-09-13T05:57:03;12.90;;;9.55;;
24715;SDS011;12822;50.124;8.678;2022-09-13T05:59:29;13.68;;;9.38;;
24715;SDS011;12822;50.124;8.678;2022-09-13T06:01:55;17.02;;;9.70;;
24715;SDS011;12822;50.124;8.678;2022-09-13T06:04:24;20.88;;;10.77;;
24715;SDS011;12822;50.124;8.678;2022-09-13T06:06:50;17.98;;;10.20;;
24715;SDS011;12822;50.124;8.678;2022-09-13T06:09:16;13.57;;;9.25;;
24715;SDS011;12822;50.124;8.678;2022-09-13T06:11:42;15.68;;;9.02;;
24715;SDS011;12822;50.124;8.678;2022-09-13T06:14:08;14.95;;;8.60;;
24715;SDS011;12822;50.124;8.678;2022-09-13T06:16:34;14.32;;;9.18;;
24715;SDS011;12822;50.124;8.678;2022-09-13T06:19:00;21.65;;;9.75;;
24715;SDS011;12822;50.124;8.678;2022-09-13T06:21:26;13.88;;;9.50;;
24715;SDS011;12822;50.124;8.678;2022-09-13T06:23:52;18.02;;;9.63;;
24715;SDS011;12822;50.124;8.678;2022-09-13T06:26:20;11.88;;;8.32;;
24715;SDS011;12822;50.124;8.678;2022-09-13T06:28:47;12.50;;;9.80;;
24715;SDS011;12822;50.124;8.678;2022-09-13T06:31:13;14.38;;;9.82;;
24715;SDS011;12822;50.124;8.678;2022-09-13T06:33:40;16.27;;;9.02;;
24715;SDS011;12822;50.124;8.678;2022-09-13T06:36:08;23.10;;;10.13;;
24715;SDS011;12822;50.124;8.678;2022-09-13T06:41:05;14.52;;;9.25;;
24715;SDS011;12822;50.124;8.678;2022-09-13T06:43:32;22.83;;;9.30;;
24715;SDS011;12822;50.124;8.678;2022-09-13T06:46:02;15.88;;;9.05;;
24715;SDS011;12822;50.124;8.678;2022-09-13T06:48:32;18.83;;;9.88;;
24715;SDS011;12822;50.124;8.678;2022-09-13T06:50:59;12.93;;;9.07;;
24715;SDS011;12822;50.124;8.678;2022-09-13T06:53:27;18.10;;;9.88;;
24715;SDS011;12822;50.124;8.678;2022-09-13T06:56:04;19.05;;;9.73;;
24715;SDS011;12822;50.124;8.678;2022-09-13T06:58:31;17.27;;;10.57;;
24715;SDS011;12822;50.124;8.678;2022-09-13T07:01:04;14.45;;;10.38;;
24715;SDS011;12822;50.124;8.678;2022-09-13T07:03:34;18.65;;;11.40;;
24715;SDS011;12822;50.124;8.678;2022-09-13T07:06:00;22.08;;;11.68;;
24715;SDS011;12822;50.124;8.678;2022-09-13T07:08:30;22.27;;;10.48;;
24715;SDS011;12822;50.124;8.678;2022-09-13T07:10:58;20.52;;;11.73;;
24715;SDS011;12822;50.124;8.678;2022-09-13T07:13:24;21.35;;;12.45;;
24715;SDS011;12822;50.124;8.678;2022-09-13T07:15:50;21.20;;;11.85;;
24715;SDS011;12822;50.124;8.678;2022-09-13T07:18:16;25.15;;;11.93;;
24715;SDS011;12822;50.124;8.678;2022-09-13T07:20:42;17.23;;;12.05;;
24715;SDS011;12822;50.124;8.678;2022-09-13T07:23:08;17.67;;;12.13;;
24715;SDS011;12822;50.124;8.678;2022-09-13T07:25:34;19.60;;;12.18;;
24715;SDS011;12822;50.124;8.678;2022-09-13T07:28:00;28.17;;;13.43;;
24715;SDS011;12822;50.124;8.678;2022-09-13T07:30:26;21.42;;;11.77;;
24715;SDS011;12822;50.124;8.678;2022-09-13T07:32:52;17.52;;;12.60;;
24715;SDS011;12822;50.124;8.678;2022-09-13T07:35:18;16.42;;;12.07;;
24715;SDS011;12822;50.124;8.678;2022-09-13T07:37:44;22.58;;;12.13;;
24715;SDS011;12822;50.124;8.678;2022-09-13T07:40:10;27.13;;;13.35;;
24715;SDS011;12822;50.124;8.678;2022-09-13T07:42:37;18.40;;;12.80;;
24715;SDS011;12822;50.124;8.678;2022-09-13T07:45:04;25.42;;;13.20;;
24715;SDS011;12822;50.124;8.678;2022-09-13T07:47:33;18.08;;;11.77;;
24715;SDS011;12822;50.124;8.678;2022-09-13T07:49:59;20.77;;;11.80;;
24715;SDS011;12822;50.124;8.678;2022-09-13T07:52:26;20.58;;;11.80;;
24715;SDS011;12822;50.124;8.678;2022-09-13T07:54:53;18.98;;;11.43;;
24715;SDS011;12822;50.124;8.678;2022-09-13T07:57:19;19.50;;;12.15;;
24715;SDS011;12822;50.124;8.678;2022-09-13T07:59:45;20.92;;;11.85;;
24715;SDS011;12822;50.124;8.678;2022-09-13T08:02:11;22.33;;;12.60;;
24715;SDS011;12822;50.124;8.678;2022-09-13T08:04:37;22.60;;;12.25;;
24715;SDS011;12822;50.124;8.678;2022-09-13T08:07:03;21.08;;;11.15;;
24715;SDS011;12822;50.124;8.678;2022-09-13T08:09:29;22.52;;;12.07;;
24715;SDS011;12822;50.124;8.678;2022-09-13T08:11:55;19.50;;;11.70;;
24715;SDS011;12822;50.124;8.678;2022-09-13T08:14:21;17.00;;;11.88;;
24715;SDS011;12822;50.124;8.678;2022-09-13T08:16:48;14.55;;;11.35;;
24715;SDS011;12822;50.124;8.678;2022-09-13T08:19:14;18.20;;;11.27;;
24715;SDS011;12822;50.124;8.678;2022-09-13T08:21:44;16.50;;;11.43;;
24715;SDS011;12822;50.124;8.678;2022-09-13T08:24:14;15.13;;;10.75;;
24715;SDS011;12822;50.124;8.678;2022-09-13T08:26:40;20.25;;;11.38;;
24715;SDS011;12822;50.124;8.678;2022-09-13T08:29:09;19.05;;;11.32;;
24715;SDS011;12822;50.124;8.678;2022-09-13T08:31:36;20.55;;;10.65;;
24715;SDS011;12822;50.124;8.678;2022-09-13T08:34:02;20.48;;;11.02;;
24715;SDS011;12822;50.124;8.678;2022-09-13T08:36:28;18.10;;;10.30;;
24715;SDS011;12822;50.124;8.678;2022-09-13T08:38:58;16.55;;;10.57;;
24715;SDS011;12822;50.124;8.678;2022-09-13T08:41:33;18.05;;;10.77;;
24715;SDS011;12822;50.124;8.678;2022-09-13T08:44:02;17.98;;;9.65;;
24715;SDS011;12822;50.124;8.678;2022-09-13T08:46:33;14.43;;;10.48;;
24715;SDS011;12822;50.124;8.678;2022-09-13T08:49:00;22.35;;;11.10;;
24715;SDS011;12822;50.124;8.678;2022-09-13T08:51:36;14.30;;;9.80;;
24715;SDS011;12822;50.124;8.678;2022-09-13T08:54:04;21.63;;;10.95;;
24715;SDS011;12822;50.124;8.678;2022-09-13T09:06:28;19.38;;;10.95;;
24715;SDS011;12822;50.124;8.678;2022-09-13T09:08:57;15.02;;;11.07;;
24715;SDS011;12822;50.124;8.678;2022-09-13T09:11:43;14.73;;;10.20;;
24715;SDS011;12822;50.124;8.678;2022-09-13T09:14:19;15.32;;;11.32;;
24715;SDS011;12822;50.124;8.678;2022-09-13T09:16:50;17.98;;;11.63;;
24715;SDS011;12822;50.124;8.678;2022-09-13T09:21:44;15.95;;;11.45;;
24715;SDS011;12822;50.124;8.678;2022-09-13T09:24:14;19.70;;;12.20;;
24715;SDS011;12822;50.124;8.678;2022-09-13T09:26:42;20.27;;;12.43;;
24715;SDS011;12822;50.124;8.678;2022-09-13T09:31:47;18.30;;;11.40;;
24715;SDS011;12822;50.124;8.678;2022-09-13T09:37:10;21.00;;;13.20;;
24715;SDS011;12822;50.124;8.678;2022-09-13T09:39:32;20.13;;;12.00;;
24715;SDS011;12822;50.124;8.678;2022-09-13T09:42:03;20.60;;;12.65;;
24715;SDS011;12822;50.124;8.678;2022-09-13T09:44:29;18.67;;;12.43;;
24715;SDS011;12822;50.124;8.678;2022-09-13T09:47:33;21.38;;;12.82;;
24715;SDS011;12822;50.124;8.678;2022-09-13T09:49:54;20.08;;;12.05;;
24715;SDS011;12822;50.124;8.678;2022-09-13T09:52:37;17.90;;;12.55;;
24715;SDS011;12822;50.124;8.678;2022-09-13T09:58:00;21.25;;;13.00;;
24715;SDS011;12822;50.124;8.678;2022-09-13T10:00:30;16.70;;;12.60;;
24715;SDS011;12822;50.124;8.678;2022-09-13T10:03:04;16.43;;;11.63;;
24715;SDS011;12822;50.124;8.678;2022-09-13T10:05:31;18.08;;;12.48;;
24715;SDS011;12822;50.124;8.678;2022-09-13T10:07:58;25.85;;;12.38;;
24715;SDS011;12822;50.124;8.678;2022-09-13T10:13:00;20.42;;;13.43;;
24715;SDS011;12822;50.124;8.678;2022-09-13T10:15:27;20.85;;;13.50;;
24715;SDS011;12822;50.124;8.678;2022-09-13T10:18:15;19.58;;;12.98;;
24715;SDS011;12822;50.124;8.678;2022-09-13T10:20:42;20.90;;;12.93;;
24715;SDS011;12822;50.124;8.678;2022-09-13T10:23:24;27.70;;;14.18;;
24715;SDS011;12822;50.124;8.678;2022-09-13T10:25:59;19.60;;;12.57;;
24715;SDS011;12822;50.124;8.678;2022-09-13T10:28:26;24.42;;;13.95;;
24715;SDS011;12822;50.124;8.678;2022-09-13T10:31:04;18.88;;;13.02;;
24715;SDS011;12822;50.124;8.678;2022-09-13T10:33:36;20.90;;;14.10;;
24715;SDS011;12822;50.124;8.678;2022-09-13T10:36:05;23.92;;;14.80;;
24715;SDS011;12822;50.124;8.678;2022-09-13T10:38:36;20.65;;;13.95;;
24715;SDS011;12822;50.124;8.678;2022-09-13T10:41:03;19.00;;;13.52;;
24715;SDS011;12822;50.124;8.678;2022-09-13T10:43:31;25.42;;;14.95;;
24715;SDS011;12822;50.124;8.678;2022-09-13T10:45:58;20.60;;;14.05;;
24715;SDS011;12822;50.124;8.678;2022-09-13T10:48:25;21.05;;;13.88;;
24715;SDS011;12822;50.124;8.678;2022-09-13T10:51:06;18.52;;;13.73;;
24715;SDS011;12822;50.124;8.678;2022-09-13T10:53:34;18.50;;;12.65;;
24715;SDS011;12822;50.124;8.678;2022-09-13T10:56:01;26.42;;;13.25;;
24715;SDS011;12822;50.124;8.678;2022-09-13T10:58:28;17.85;;;12.23;;
24715;SDS011;12822;50.124;8.678;2022-09-13T11:01:01;19.60;;;13.15;;
24715;SDS011;12822;50.124;8.678;2022-09-13T11:06:02;20.45;;;12.10;;
24715;SDS011;12822;50.124;8.678;2022-09-13T11:08:35;19.17;;;12.50;;
24715;SDS011;12822;50.124;8.678;2022-09-13T11:26:51;15.30;;;10.70;;
24715;SDS011;12822;50.124;8.678;2022-09-13T11:29:24;16.60;;;10.90;;
24715;SDS011;12822;50.124;8.678;2022-09-13T11:34:27;17.10;;;10.93;;
24715;SDS011;12822;50.124;8.678;2022-09-13T11:58:28;15.80;;;11.65;;
24715;SDS011;12822;50.124;8.678;2022-09-13T12:01:01;16.50;;;11.80;;
24715;SDS011;12822;50.124;8.678;2022-09-13T12:06:21;23.55;;;11.70;;
24715;SDS011;12822;50.124;8.678;2022-09-13T12:08:49;21.02;;;13.35;;
24715;SDS011;12822;50.124;8.678;2022-09-13T12:11:17;18.05;;;12.30;;
24715;SDS011;12822;50.124;8.678;2022-09-13T12:13:51;20.33;;;12.95;;
24715;SDS011;12822;50.124;8.678;2022-09-13T12:18:54;18.40;;;13.55;;
24715;SDS011;12822;50.124;8.678;2022-09-13T12:21:22;18.48;;;11.75;;
24715;SDS011;12822;50.124;8.678;2022-09-13T12:23:52;22.38;;;12.98;;
24715;SDS011;12822;50.124;8.678;2022-09-13T12:26:23;19.48;;;12.68;;
24715;SDS011;12822;50.124;8.678;2022-09-13T12:28:53;20.15;;;12.65;;
24715;SDS011;12822;50.124;8.678;2022-09-13T12:31:21;17.08;;;11.38;;
24715;SDS011;12822;50.124;8.678;2022-09-13T12:33:47;15.07;;;10.07;;
24715;SDS011;12822;50.124;8.678;2022-09-13T12:57:18;12.82;;;7.63;;
24715;SDS011;12822;50.124;8.678;2022-09-13T13:04:51;12.23;;;8.25;;
24715;SDS011;12822;50.124;8.678;2022-09-13T13:07:20;10.93;;;7.50;;
24715;SDS011;12822;50.124;8.678;2022-09-13T13:09:47;19.50;;;8.60;;
24715;SDS011;12822;50.124;8.678;2022-09-13T13:12:28;16.83;;;8.20;;
24715;SDS011;12822;50.124;8.678;2022-09-13T13:14:54;17.98;;;8.60;;
24715;SDS011;12822;50.124;8.678;2022-09-13T13:23:12;9.43;;;7.15;;
24715;SDS011;12822;50.124;8.678;2022-09-13T13:25:53;10.15;;;7.45;;
24715;SDS011;12822;50.124;8.678;2022-09-13T13:31:06;9.82;;;6.75;;
24715;SDS011;12822;50.124;8.678;2022-09-13T13:33:41;12.23;;;6.68;;
24715;SDS011;12822;50.124;8.678;2022-09-13T13:38:55;8.88;;;7.47;;
24715;SDS011;12822;50.124;8.678;2022-09-13T13:46:42;11.05;;;6.07;;
24715;SDS011;12822;50.124;8.678;2022-09-13T13:57:27;13.90;;;7.00;;
24715;SDS011;12822;50.124;8.678;2022-09-13T14:02:22;12.63;;;6.55;;
24715;SDS011;12822;50.124;8.678;2022-09-13T14:07:49;14.30;;;7.30;;
24715;SDS011;12822;50.124;8.678;2022-09-13T14:10:24;17.52;;;7.25;;
24715;SDS011;12822;50.124;8.678;2022-09-13T14:13:15;10.93;;;7.40;;
24715;SDS011;12822;50.124;8.678;2022-09-13T14:15:48;11.77;;;7.45;;
24715;SDS011;12822;50.124;8.678;2022-09-13T14:21:02;10.95;;;6.53;;
24715;SDS011;12822;50.124;8.678;2022-09-13T14:23:28;13.05;;;7.15;;
24715;SDS011;12822;50.124;8.678;2022-09-13T14:25:56;8.38;;;6.50;;
24715;SDS011;12822;50.124;8.678;2022-09-13T14:28:22;11.13;;;7.03;;
24715;SDS011;12822;50.124;8.678;2022-09-13T14:30:52;13.63;;;7.80;;
24715;SDS011;12822;50.124;8.678;2022-09-13T14:33:27;8.77;;;7.43;;
24715;SDS011;12822;50.124;8.678;2022-09-13T14:36:06;19.63;;;8.07;;
24715;SDS011;12822;50.124;8.678;2022-09-13T14:38:33;10.95;;;7.97;;
24715;SDS011;12822;50.124;8.678;2022-09-13T14:41:21;12.65;;;7.90;;
24715;SDS011;12822;50.124;8.678;2022-09-13T14:43:47;14.68;;;8.05;;
24715;SDS011;12822;50.124;8.678;2022-09-13T14:46:31;10.38;;;8.07;;
24715;SDS011;12822;50.124;8.678;2022-09-13T14:49:00;15.02;;;8.40;;
24715;SDS011;12822;50.124;8.678;2022-09-13T14:51:32;12.98;;;8.00;;
24715;SDS011;12822;50.124;8.678;2022-09-13T14:54:03;13.18;;;8.07;;
24715;SDS011;12822;50.124;8.678;2022-09-13T14:56:39;10.52;;;7.25;;
24715;SDS011;12822;50.124;8.678;2022-09-13T14:59:10;10.73;;;7.95;;
24715;SDS011;12822;50.124;8.678;2022-09-13T15:01:38;10.38;;;7.38;;
24715;SDS011;12822;50.124;8.678;2022-09-13T15:04:04;12.18;;;7.85;;
24715;SDS011;12822;50.124;8.678;2022-09-13T15:06:37;14.50;;;8.20;;
24715;SDS011;12822;50.124;8.678;2022-09-13T15:11:38;14.77;;;7.72;;
24715;SDS011;12822;50.124;8.678;2022-09-13T15:16:46;12.50;;;7.35;;
24715;SDS011;12822;50.124;8.678;2022-09-13T15:22:40;13.15;;;8.75;;
24715;SDS011;12822;50.124;8.678;2022-09-13T15:24:48;11.25;;;8.25;;
24715;SDS011;12822;50.124;8.678;2022-09-13T15:27:19;12.48;;;8.15;;
24715;SDS011;12822;50.124;8.678;2022-09-13T15:29:53;10.50;;;8.27;;
24715;SDS011;12822;50.124;8.678;2022-09-13T15:32:23;14.77;;;9.65;;
24715;SDS011;12822;50.124;8.678;2022-09-13T15:34:55;13.50;;;8.70;;
24715;SDS011;12822;50.124;8.678;2022-09-13T15:37:27;13.35;;;8.82;;
24715;SDS011;12822;50.124;8.678;2022-09-13T15:42:38;13.52;;;9.52;;
24715;SDS011;12822;50.124;8.678;2022-09-13T15:45:04;16.13;;;9.45;;
24715;SDS011;12822;50.124;8.678;2022-09-13T15:47:30;12.93;;;8.23;;
24715;SDS011;12822;50.124;8.678;2022-09-13T15:49:59;14.43;;;8.75;;
24715;SDS011;12822;50.124;8.678;2022-09-13T15:52:25;11.68;;;8.85;;
24715;SDS011;12822;50.124;8.678;2022-09-13T15:54:51;14.98;;;9.10;;
24715;SDS011;12822;50.124;8.678;2022-09-13T15:57:25;16.02;;;8.25;;
24715;SDS011;12822;50.124;8.678;2022-09-13T15:59:51;16.70;;;8.65;;
24715;SDS011;12822;50.124;8.678;2022-09-13T16:02:19;19.85;;;9.15;;
24715;SDS011;12822;50.124;8.678;2022-09-13T16:04:46;16.25;;;9.50;;
24715;SDS011;12822;50.124;8.678;2022-09-13T16:07:12;18.27;;;8.30;;
24715;SDS011;12822;50.124;8.678;2022-09-13T16:09:38;14.57;;;9.32;;
24715;SDS011;12822;50.124;8.678;2022-09-13T16:12:05;14.57;;;9.10;;
24715;SDS011;12822;50.124;8.678;2022-09-13T16:14:33;15.50;;;9.25;;
24715;SDS011;12822;50.124;8.678;2022-09-13T16:17:00;13.88;;;8.25;;
24715;SDS011;12822;50.124;8.678;2022-09-13T16:19:29;11.90;;;8.35;;
24715;SDS011;12822;50.124;8.678;2022-09-13T16:21:55;14.23;;;9.15;;
24715;SDS011;12822;50.124;8.678;2022-09-13T16:24:21;15.43;;;8.88;;
24715;SDS011;12822;50.124;8.678;2022-09-13T16:26:47;17.25;;;9.77;;
24715;SDS011;12822;50.124;8.678;2022-09-13T16:29:13;14.52;;;8.98;;
24715;SDS011;12822;50.124;8.678;2022-09-13T16:31:42;14.48;;;9.15;;
24715;SDS011;12822;50.124;8.678;2022-09-13T16:34:08;19.17;;;9.38;;
24715;SDS011;12822;50.124;8.678;2022-09-13T16:36:34;13.32;;;9.05;;
24715;SDS011;12822;50.124;8.678;2022-09-13T16:39:00;13.65;;;10.20;;
24715;SDS011;12822;50.124;8.678;2022-09-13T16:41:30;17.33;;;10.50;;
24715;SDS011;12822;50.124;8.678;2022-09-13T16:43:56;20.27;;;10.77;;
24715;SDS011;12822;50.124;8.678;2022-09-13T16:46:24;18.00;;;11.20;;
24715;SDS011;12822;50.124;8.678;2022-09-13T16:48:52;17.05;;;11.10;;
24715;SDS011;12822;50.124;8.678;2022-09-13T16:51:19;20.17;;;10.38;;
24715;SDS011;12822;50.124;8.678;2022-09-13T16:53:45;16.13;;;10.25;;
24715;SDS011;12822;50.124;8.678;2022-09-13T16:56:12;15.15;;;9.98;;
24715;SDS011;12822;50.124;8.678;2022-09-13T16:58:40;20.23;;;10.48;;
24715;SDS011;12822;50.124;8.678;2022-09-13T17:01:06;19.40;;;11.32;;
24715;SDS011;12822;50.124;8.678;2022-09-13T17:03:33;16.50;;;10.65;;
24715;SDS011;12822;50.124;8.678;2022-09-13T17:06:00;17.92;;;11.30;;
24715;SDS011;12822;50.124;8.678;2022-09-13T17:08:27;18.13;;;11.25;;
24715;SDS011;12822;50.124;8.678;2022-09-13T17:10:57;14.63;;;11.00;;
24715;SDS011;12822;50.124;8.678;2022-09-13T17:13:23;20.25;;;11.73;;
24715;SDS011;12822;50.124;8.678;2022-09-13T17:15:49;16.85;;;11.82;;
24715;SDS011;12822;50.124;8.678;2022-09-13T17:18:19;14.20;;;9.77;;
24715;SDS011;12822;50.124;8.678;2022-09-13T17:20:45;20.88;;;11.48;;
24715;SDS011;12822;50.124;8.678;2022-09-13T17:23:12;15.82;;;10.95;;
24715;SDS011;12822;50.124;8.678;2022-09-13T17:25:42;21.60;;;10.77;;
24715;SDS011;12822;50.124;8.678;2022-09-13T17:28:10;17.08;;;11.35;;
24715;SDS011;12822;50.124;8.678;2022-09-13T17:30:36;19.25;;;10.73;;
24715;SDS011;12822;50.124;8.678;2022-09-13T17:33:03;21.45;;;11.98;;
24715;SDS011;12822;50.124;8.678;2022-09-13T17:35:32;26.80;;;12.20;;
24715;SDS011;12822;50.124;8.678;2022-09-13T17:37:58;16.15;;;10.93;;
24715;SDS011;12822;50.124;8.678;2022-09-13T17:40:25;13.60;;;10.55;;
24715;SDS011;12822;50.124;8.678;2022-09-13T17:42:52;19.83;;;12.30;;
24715;SDS011;12822;50.124;8.678;2022-09-13T17:45:18;17.23;;;12.20;;
24715;SDS011;12822;50.124;8.678;2022-09-13T17:47:45;21.80;;;13.50;;